Time;durP1;ratioP1;P1;durP2;ratioP2;P2;SDS_P1;SDS_P2;PMS_P1;PMS_P2;Temp;Humidity;BMP_temperature;BMP_pressure;BME280_temperature;BME280_humidity;BME280_pressure;Samples;Min_cycle;Max_cycle;Signal;HPM_P1;HPM_P2
2022/08/23 00:00:48;;;;;;;;;;;16.20;99.90;;;;;;4212104;28;19966;-56
2022/08/23 00:02:50;;;;;;;;;;;16.20;99.90;;;;;;4211972;28;19932;-58
2022/08/23 00:04:52;;;;;;;;;;;16.00;99.90;;;;;;4211546;28;19928;-57
2022/08/23 00:07:10;;;;;;;;;;;16.00;99.90;;;;;;4212296;28;19928;-57
2022/08/23 00:09:12;;;;;;;;;;;16.10;99.90;;;;;;4211603;28;19978;-56
2022/08/23 00:11:27;;;;;;;;;;;16.00;99.90;;;;;;4211416;28;19924;-57
2022/08/23 00:13:30;;;;;;;;;;;16.00;99.90;;;;;;4193792;28;19932;-57
2022/08/23 00:15:48;;;;;;;;;;;15.90;99.90;;;;;;4195202;28;19932;-57
2022/08/23 00:17:49;;;;;;;;;;;15.90;99.90;;;;;;4203608;28;19938;-57
2022/08/23 00:19:51;;;;;;;;;;;15.80;99.90;;;;;;4211684;28;20391;-57
2022/08/23 00:21:54;;;;;;;;;;;15.80;99.90;;;;;;4211772;28;20331;-57
2022/08/23 00:23:56;;;;;;;;;;;15.90;99.90;;;;;;4211743;28;20015;-57
2022/08/23 00:26:00;;;;;;;;;;;15.80;99.90;;;;;;4212024;28;19924;-57
2022/08/23 00:28:02;;;;;;;;;;;15.90;99.90;;;;;;4212769;28;19928;-57
2022/08/23 00:30:05;;;;;;;;;;;15.80;99.90;;;;;;4214774;28;19924;-56
2022/08/23 00:32:09;;;;;;;;;;;15.80;99.90;;;;;;4214606;28;19924;-56
2022/08/23 00:34:11;;;;;;;;;;;15.80;99.90;;;;;;4214642;28;20023;-56
2022/08/23 00:36:13;;;;;;;;;;;15.80;99.90;;;;;;4214816;28;19935;-57
2022/08/23 00:38:15;;;;;;;;;;;15.80;99.90;;;;;;4214636;28;20380;-59
2022/08/23 00:40:35;;;;;;;;;;;15.80;99.90;;;;;;4196517;28;19971;-56
2022/08/23 00:47:41;;;;;;;;;;;15.80;99.90;;;;;;4214182;28;20450;-57
2022/08/23 00:49:46;;;;;;;;;;;15.80;99.90;;;;;;4214534;28;20445;-56
2022/08/23 00:51:54;;;;;;;;;;;15.70;99.90;;;;;;4214501;28;19954;-57
2022/08/23 00:53:57;;;;;;;;;;;15.60;99.90;;;;;;4197760;28;19963;-57
2022/08/23 00:56:02;;;;;;;;;;;15.70;99.90;;;;;;4205119;28;19970;-57
2022/08/23 00:58:04;;;;;;;;;;;15.50;99.90;;;;;;4214537;28;19974;-57
2022/08/23 01:00:07;;;;;;;;;;;15.60;99.90;;;;;;4214205;28;19973;-56
2022/08/23 01:02:09;;;;;;;;;;;15.40;99.90;;;;;;4214222;28;19928;-57
2022/08/23 01:04:11;;;;;;;;;;;15.50;99.90;;;;;;4214182;28;20019;-58
2022/08/23 01:06:14;;;;;;;;;;;15.50;99.90;;;;;;4214363;28;19930;-58
2022/08/23 01:08:18;;;;;;;;;;;15.40;99.90;;;;;;4214295;28;20018;-57
2022/08/23 01:10:25;;;;;;;;;;;15.30;99.90;;;;;;4214420;28;19928;-57
2022/08/23 01:12:31;;;;;;;;;;;15.20;99.90;;;;;;4214051;28;19934;-57
2022/08/23 01:14:57;;;;;;;;;;;15.10;99.90;;;;;;4214111;28;19955;-58
2022/08/23 01:16:59;;;;;;;;;;;15.00;99.90;;;;;;4206128;28;20403;-56
2022/08/23 01:19:02;;;;;;;;;;;14.90;99.90;;;;;;4213775;28;20437;-57
2022/08/23 01:21:04;;;;;;;;;;;14.80;99.90;;;;;;4213851;28;19993;-56
2022/08/23 01:23:15;;;;;;;;;;;14.80;99.90;;;;;;4214220;28;19978;-57
2022/08/23 01:25:20;;;;;;;;;;;14.70;99.90;;;;;;4195593;28;20392;-58
2022/08/23 01:27:22;;;;;;;;;;;14.70;99.90;;;;;;4213878;28;20330;-57
2022/08/23 01:29:24;;;;;;;;;;;14.80;99.90;;;;;;4213772;28;19928;-56
2022/08/23 01:31:26;;;;;;;;;;;14.80;99.90;;;;;;4213494;28;19997;-57
2022/08/23 01:33:28;;;;;;;;;;;14.80;99.90;;;;;;4213404;28;20371;-59
2022/08/23 01:35:33;;;;;;;;;;;14.80;99.90;;;;;;4213923;28;19928;-57
2022/08/23 01:37:35;;;;;;;;;;;14.90;99.90;;;;;;4213439;28;19934;-58
2022/08/23 01:39:37;;;;;;;;;;;14.80;99.90;;;;;;4213249;28;19931;-56
2022/08/23 01:41:39;;;;;;;;;;;14.80;99.90;;;;;;4213424;28;20304;-56
2022/08/23 01:43:41;;;;;;;;;;;14.90;99.90;;;;;;4213281;28;19970;-56
2022/08/23 01:45:43;;;;;;;;;;;14.90;99.90;;;;;;4213705;28;19924;-57
2022/08/23 01:47:45;;;;;;;;;;;14.90;99.90;;;;;;4213053;28;19974;-57
2022/08/23 01:49:47;;;;;;;;;;;14.80;99.90;;;;;;4213657;28;19928;-57
2022/08/23 01:51:49;;;;;;;;;;;14.80;99.90;;;;;;4213834;28;19927;-57
2022/08/23 01:53:51;;;;;;;;;;;14.80;99.90;;;;;;4213167;28;19943;-56
2022/08/23 01:55:53;;;;;;;;;;;14.60;99.90;;;;;;4213180;28;19928;-57
2022/08/23 01:57:56;;;;;;;;;;;14.70;99.90;;;;;;4213535;28;19928;-57
2022/08/23 01:59:58;;;;;;;;;;;14.70;99.90;;;;;;4213385;28;19928;-57
2022/08/23 02:02:01;;;;;;;;;;;14.80;99.90;;;;;;4213239;28;20315;-57
2022/08/23 02:04:03;;;;;;;;;;;14.70;99.90;;;;;;4195143;28;19959;-56
2022/08/23 02:06:06;;;;;;;;;;;14.70;99.90;;;;;;4213194;28;19932;-57
2022/08/23 02:10:31;;;;;;;;;;;14.60;99.90;;;;;;4196594;28;19924;-56
2022/08/23 02:12:33;;;;;;;;;;;14.60;99.90;;;;;;4203743;28;20383;-56
2022/08/23 02:14:36;;;;;;;;;;;14.60;99.90;;;;;;4213099;28;19974;-57
2022/08/23 02:16:43;;;;;;;;;;;14.60;99.90;;;;;;4213158;28;19923;-57
2022/08/23 02:18:52;;;;;;;;;;;14.60;99.90;;;;;;4212749;28;20006;-56
2022/08/23 02:20:54;;;;;;;;;;;14.60;99.90;;;;;;4213232;28;19932;-56
2022/08/23 02:22:56;;;;;;;;;;;14.60;99.90;;;;;;4213045;28;20431;-55
2022/08/23 02:24:58;;;;;;;;;;;14.70;99.90;;;;;;4213148;28;20031;-56
2022/08/23 02:27:02;;;;;;;;;;;14.60;99.90;;;;;;4213089;28;19933;-56
2022/08/23 02:29:05;;;;;;;;;;;14.50;99.90;;;;;;4213110;28;19928;-57
2022/08/23 02:31:07;;;;;;;;;;;14.40;99.90;;;;;;4212780;28;19966;-56
2022/08/23 02:33:09;;;;;;;;;;;14.40;99.90;;;;;;4212750;28;20319;-57
2022/08/23 02:35:11;;;;;;;;;;;14.30;99.90;;;;;;4212875;28;19977;-56
2022/08/23 02:37:13;;;;;;;;;;;14.20;99.90;;;;;;4212544;28;19924;-57
2022/08/23 02:39:15;;;;;;;;;;;14.20;99.90;;;;;;4213112;28;19977;-57
2022/08/23 02:41:17;;;;;;;;;;;14.10;99.90;;;;;;4212620;28;19928;-56
2022/08/23 02:43:19;;;;;;;;;;;14.10;99.90;;;;;;4212353;28;19931;-56
2022/08/23 02:45:21;;;;;;;;;;;14.10;99.90;;;;;;4213238;28;19935;-56
2022/08/23 02:47:23;;;;;;;;;;;14.10;99.90;;;;;;4212035;28;19928;-56
2022/08/23 02:49:25;;;;;;;;;;;14.10;99.90;;;;;;4212487;28;20387;-57
2022/08/23 02:51:27;;;;;;;;;;;14.00;99.90;;;;;;4212346;28;19981;-57
2022/08/23 02:53:29;;;;;;;;;;;14.10;99.90;;;;;;4212571;28;19928;-56
2022/08/23 02:55:31;;;;;;;;;;;14.10;99.90;;;;;;4212411;28;20018;-56
2022/08/23 02:57:33;;;;;;;;;;;14.10;99.90;;;;;;4212040;28;19924;-57
2022/08/23 02:59:36;;;;;;;;;;;14.10;99.90;;;;;;4212360;28;19973;-56
2022/08/23 03:01:38;;;;;;;;;;;14.10;99.90;;;;;;4212401;28;19928;-56
2022/08/23 03:03:40;;;;;;;;;;;14.10;99.90;;;;;;4212375;28;19974;-56
2022/08/23 03:05:42;;;;;;;;;;;14.10;99.90;;;;;;4212782;28;19928;-57
2022/08/23 03:07:44;;;;;;;;;;;14.10;99.90;;;;;;4212373;28;19924;-57
2022/08/23 03:09:46;;;;;;;;;;;14.10;99.90;;;;;;4212208;28;19950;-56
2022/08/23 03:11:48;;;;;;;;;;;14.10;99.90;;;;;;4212550;28;20018;-57
2022/08/23 03:13:51;;;;;;;;;;;14.20;99.90;;;;;;4212138;28;19935;-56
2022/08/23 03:15:53;;;;;;;;;;;14.20;99.90;;;;;;4212500;28;19928;-56
2022/08/23 03:17:55;;;;;;;;;;;14.10;99.90;;;;;;4212020;28;20380;-58
2022/08/23 03:19:57;;;;;;;;;;;14.10;99.90;;;;;;4212187;28;20357;-56
2022/08/23 03:21:59;;;;;;;;;;;14.20;99.90;;;;;;4194379;28;19978;-56
2022/08/23 03:24:02;;;;;;;;;;;14.10;99.90;;;;;;4212113;28;19932;-57
2022/08/23 03:26:09;;;;;;;;;;;14.10;99.90;;;;;;4212144;28;20341;-57
2022/08/23 03:28:11;;;;;;;;;;;14.20;99.90;;;;;;4211857;28;20342;-57
2022/08/23 03:30:16;;;;;;;;;;;14.20;99.90;;;;;;4212096;28;20337;-57
2022/08/23 03:32:20;;;;;;;;;;;14.20;99.90;;;;;;4211657;28;20465;-57
2022/08/23 03:34:22;;;;;;;;;;;14.30;99.90;;;;;;4212553;28;20359;-57
2022/08/23 03:36:25;;;;;;;;;;;14.20;99.90;;;;;;4193687;28;19928;-56
2022/08/23 03:38:28;;;;;;;;;;;14.00;99.90;;;;;;4212263;28;20439;-57
2022/08/23 03:40:30;;;;;;;;;;;14.00;99.90;;;;;;4211876;28;19987;-57
2022/08/23 03:42:32;;;;;;;;;;;13.90;99.90;;;;;;4193835;28;19967;-57
2022/08/23 03:44:34;;;;;;;;;;;13.90;99.90;;;;;;4211809;28;19924;-57
2022/08/23 03:46:37;;;;;;;;;;;13.90;99.90;;;;;;4211751;28;19924;-56
2022/08/23 03:48:40;;;;;;;;;;;13.80;99.90;;;;;;4211623;28;19947;-57
2022/08/23 03:50:42;;;;;;;;;;;13.80;99.90;;;;;;4212336;28;20064;-57
2022/08/23 03:52:45;;;;;;;;;;;13.70;99.90;;;;;;4211922;28;19970;-56
2022/08/23 03:54:47;;;;;;;;;;;13.80;99.90;;;;;;4211835;28;19960;-56
2022/08/23 03:56:51;;;;;;;;;;;13.70;99.90;;;;;;4212150;28;20388;-56
2022/08/23 03:58:53;;;;;;;;;;;13.80;99.90;;;;;;4195604;28;19982;-57
2022/08/23 04:00:56;;;;;;;;;;;13.90;99.90;;;;;;4202509;28;19928;-56
2022/08/23 04:02:58;;;;;;;;;;;13.90;99.90;;;;;;4212529;28;20380;-56
2022/08/23 04:05:00;;;;;;;;;;;13.90;99.90;;;;;;4215124;28;19932;-57
2022/08/23 04:07:02;;;;;;;;;;;13.80;99.90;;;;;;4197301;28;19931;-57
2022/08/23 04:09:04;;;;;;;;;;;13.90;99.90;;;;;;4215211;28;19928;-56
2022/08/23 04:11:06;;;;;;;;;;;13.80;99.90;;;;;;4215436;28;19928;-57
2022/08/23 04:13:10;;;;;;;;;;;13.70;99.90;;;;;;4214912;28;19924;-56
2022/08/23 04:15:12;;;;;;;;;;;13.70;99.90;;;;;;4215408;28;19954;-57
2022/08/23 04:17:14;;;;;;;;;;;13.70;99.90;;;;;;4214991;28;20288;-57
2022/08/23 04:19:16;;;;;;;;;;;13.60;99.90;;;;;;4196713;28;19991;-57
2022/08/23 04:21:21;;;;;;;;;;;13.60;99.90;;;;;;4215231;28;19924;-57
2022/08/23 04:23:24;;;;;;;;;;;13.60;99.90;;;;;;4214696;28;20014;-58
2022/08/23 04:25:26;;;;;;;;;;;13.50;99.90;;;;;;4215145;28;19928;-58
2022/08/23 04:27:34;;;;;;;;;;;13.60;99.90;;;;;;4214866;28;20007;-58
2022/08/23 04:29:37;;;;;;;;;;;13.60;99.90;;;;;;4214529;28;19977;-56
2022/08/23 04:31:40;;;;;;;;;;;13.50;99.90;;;;;;4214910;28;19931;-58
2022/08/23 04:33:42;;;;;;;;;;;13.50;99.90;;;;;;4224514;28;19980;-57
2022/08/23 04:35:44;;;;;;;;;;;13.50;99.90;;;;;;4213236;28;19963;-57
2022/08/23 04:37:46;;;;;;;;;;;13.50;99.90;;;;;;4214420;28;19928;-56
2022/08/23 04:42:17;;;;;;;;;;;13.50;99.90;;;;;;4214621;28;19931;-56
2022/08/23 04:44:19;;;;;;;;;;;13.50;99.90;;;;;;4214401;28;20410;-56
2022/08/23 04:46:21;;;;;;;;;;;13.40;99.90;;;;;;4214772;28;19930;-57
2022/08/23 04:48:23;;;;;;;;;;;13.40;99.90;;;;;;4214170;28;19928;-57
2022/08/23 04:50:25;;;;;;;;;;;13.40;99.90;;;;;;4214113;28;19927;-56
2022/08/23 04:52:27;;;;;;;;;;;13.40;99.90;;;;;;4214528;28;19929;-57
2022/08/23 04:54:30;;;;;;;;;;;13.40;99.90;;;;;;4214392;28;19928;-57
2022/08/23 04:56:32;;;;;;;;;;;13.40;99.90;;;;;;4214497;28;20026;-56
2022/08/23 04:58:35;;;;;;;;;;;13.40;99.90;;;;;;4196246;28;19924;-58
2022/08/23 05:00:38;;;;;;;;;;;13.40;99.90;;;;;;4214517;28;19924;-56
2022/08/23 05:02:41;;;;;;;;;;;13.40;99.90;;;;;;4214279;28;19924;-57
2022/08/23 05:04:43;;;;;;;;;;;13.40;99.90;;;;;;4214112;28;19935;-57
2022/08/23 05:06:45;;;;;;;;;;;13.60;99.90;;;;;;4214494;28;19931;-56
2022/08/23 05:08:47;;;;;;;;;;;13.70;99.90;;;;;;4214180;28;19924;-57
2022/08/23 05:10:50;;;;;;;;;;;13.70;99.90;;;;;;4213948;28;19935;-56
2022/08/23 05:12:52;;;;;;;;;;;13.60;99.90;;;;;;4214379;28;20015;-56
2022/08/23 05:14:54;;;;;;;;;;;13.50;99.90;;;;;;4213862;28;19968;-57
2022/08/23 05:16:56;;;;;;;;;;;13.50;99.90;;;;;;4196071;28;19940;-56
2022/08/23 05:18:58;;;;;;;;;;;13.50;99.90;;;;;;4214190;28;19924;-56
2022/08/23 05:21:00;;;;;;;;;;;13.50;99.90;;;;;;4214086;28;19928;-57
2022/08/23 05:23:02;;;;;;;;;;;13.40;99.90;;;;;;4213843;28;20378;-56
2022/08/23 05:25:05;;;;;;;;;;;13.50;99.90;;;;;;4214023;28;19931;-56
2022/08/23 05:27:06;;;;;;;;;;;13.50;99.90;;;;;;4214104;28;19924;-56
2022/08/23 05:29:14;;;;;;;;;;;13.50;99.90;;;;;;4214282;28;20387;-56
2022/08/23 05:31:20;;;;;;;;;;;13.50;99.90;;;;;;4213927;28;19947;-57
2022/08/23 05:33:22;;;;;;;;;;;13.70;99.90;;;;;;4206541;28;20397;-57
2022/08/23 05:35:24;;;;;;;;;;;13.70;99.90;;;;;;4213547;28;20027;-57
2022/08/23 05:37:26;;;;;;;;;;;13.90;99.90;;;;;;4206240;28;20011;-56
2022/08/23 05:39:28;;;;;;;;;;;13.90;99.90;;;;;;4201331;28;19924;-57
2022/08/23 05:41:38;;;;;;;;;;;13.90;99.90;;;;;;4214115;28;19927;-57
2022/08/23 05:43:41;;;;;;;;;;;13.90;99.90;;;;;;4213532;28;20384;-58
2022/08/23 05:45:43;;;;;;;;;;;13.90;99.90;;;;;;4195355;28;19925;-57
2022/08/23 05:47:45;;;;;;;;;;;14.00;99.90;;;;;;4213194;28;20383;-56
2022/08/23 05:49:47;;;;;;;;;;;14.00;99.90;;;;;;4213499;28;19935;-59
2022/08/23 05:51:49;;;;;;;;;;;14.10;99.90;;;;;;4212944;28;20339;-58
2022/08/23 05:53:53;;;;;;;;;;;14.20;99.90;;;;;;4213662;28;19924;-58
2022/08/23 05:55:55;;;;;;;;;;;14.30;99.90;;;;;;4212777;28;19985;-58
2022/08/23 05:57:56;;;;;;;;;;;14.40;99.90;;;;;;4195409;28;20030;-58
2022/08/23 05:59:58;;;;;;;;;;;14.60;99.90;;;;;;4213245;28;20296;-58
2022/08/23 06:02:00;;;;;;;;;;;14.70;99.90;;;;;;4213159;28;20323;-58
2022/08/23 06:04:04;;;;;;;;;;;14.80;99.90;;;;;;4195297;28;20412;-59
2022/08/23 06:06:06;;;;;;;;;;;15.00;99.90;;;;;;4213192;28;19967;-58
2022/08/23 06:08:08;;;;;;;;;;;15.10;99.90;;;;;;4217500;28;20376;-58
2022/08/23 06:10:10;;;;;;;;;;;15.20;99.90;;;;;;4211928;28;19927;-58
2022/08/23 06:12:17;;;;;;;;;;;15.30;99.90;;;;;;4199838;28;19924;-58
2022/08/23 06:14:19;;;;;;;;;;;15.40;99.90;;;;;;4212856;28;19924;-58
2022/08/23 06:16:22;;;;;;;;;;;15.60;99.90;;;;;;4213215;28;19928;-59
2022/08/23 06:18:25;;;;;;;;;;;15.80;99.90;;;;;;4212735;28;20272;-58
2022/08/23 06:20:27;;;;;;;;;;;16.00;99.90;;;;;;4210134;28;19939;-57
2022/08/23 06:22:29;;;;;;;;;;;16.10;99.90;;;;;;4212002;28;19994;-58
2022/08/23 06:24:32;;;;;;;;;;;16.30;99.90;;;;;;4212977;28;20341;-58
2022/08/23 06:26:35;;;;;;;;;;;16.50;99.90;;;;;;4212517;28;19928;-59
2022/08/23 06:28:38;;;;;;;;;;;16.50;99.90;;;;;;4212917;28;19958;-60
2022/08/23 06:30:55;;;;;;;;;;;16.70;99.90;;;;;;4205988;28;19932;-60
2022/08/23 06:32:58;;;;;;;;;;;16.90;99.90;;;;;;4213574;28;20353;-59
2022/08/23 06:34:59;;;;;;;;;;;17.10;99.90;;;;;;4212052;28;19971;-58
2022/08/23 06:37:20;;;;;;;;;;;17.20;99.90;;;;;;4212716;28;20434;-59
2022/08/23 06:39:23;;;;;;;;;;;17.40;99.90;;;;;;4211983;28;19959;-59
2022/08/23 06:41:25;;;;;;;;;;;17.60;99.90;;;;;;4211566;28;20019;-62
2022/08/23 06:43:28;;;;;;;;;;;17.60;99.90;;;;;;4212366;28;19959;-59
2022/08/23 06:45:30;;;;;;;;;;;17.70;99.90;;;;;;4212760;28;20005;-59
2022/08/23 06:47:35;;;;;;;;;;;18.00;99.90;;;;;;4212903;28;19935;-61
2022/08/23 06:49:37;;;;;;;;;;;18.10;99.90;;;;;;4199471;28;19935;-61
2022/08/23 06:51:43;;;;;;;;;;;18.20;99.90;;;;;;4212268;28;19934;-59
2022/08/23 06:53:45;;;;;;;;;;;18.50;99.90;;;;;;4194337;28;19989;-59
2022/08/23 06:55:47;;;;;;;;;;;18.70;99.90;;;;;;4212135;28;20011;-61
2022/08/23 06:57:49;;;;;;;;;;;18.90;99.90;;;;;;4212494;28;20291;-60
2022/08/23 06:59:51;;;;;;;;;;;19.20;99.90;;;;;;4204354;28;19991;-60
2022/08/23 07:01:53;;;;;;;;;;;19.20;99.90;;;;;;4208116;28;20357;-60
2022/08/23 07:03:55;;;;;;;;;;;19.40;99.90;;;;;;4211732;28;19928;-60
2022/08/23 07:05:58;;;;;;;;;;;19.60;99.90;;;;;;4218940;28;19934;-60
2022/08/23 07:08:00;;;;;;;;;;;19.90;99.90;;;;;;4215587;28;19924;-61
2022/08/23 07:10:02;;;;;;;;;;;20.20;99.90;;;;;;4211753;28;19951;-60
2022/08/23 07:12:05;;;;;;;;;;;20.40;99.90;;;;;;4205942;28;19963;-60
2022/08/23 07:14:09;;;;;;;;;;;20.50;99.90;;;;;;4195467;28;19930;-60
2022/08/23 07:16:11;;;;;;;;;;;20.60;99.90;;;;;;4208127;28;19935;-60
2022/08/23 07:18:13;;;;;;;;;;;20.60;99.90;;;;;;4212202;28;19931;-60
2022/08/23 07:20:15;;;;;;;;;;;20.70;99.90;;;;;;4212165;28;19934;-60
2022/08/23 07:22:19;;;;;;;;;;;20.90;99.90;;;;;;4211898;28;19967;-59
2022/08/23 07:24:22;;;;;;;;;;;21.10;99.90;;;;;;4212225;28;19924;-61
2022/08/23 07:26:24;;;;;;;;;;;21.40;99.90;;;;;;4212599;28;19925;-60
2022/08/23 07:28:26;;;;;;;;;;;21.60;99.90;;;;;;4212012;28;20433;-60
2022/08/23 07:30:29;;;;;;;;;;;21.50;99.90;;;;;;4212249;28;20019;-60
2022/08/23 07:32:30;;;;;;;;;;;21.50;99.90;;;;;;4211825;28;19963;-60
2022/08/23 07:34:33;;;;;;;;;;;21.90;99.90;;;;;;4212202;28;19931;-61
2022/08/23 07:36:36;;;;;;;;;;;22.00;99.90;;;;;;4212000;28;19935;-61
2022/08/23 07:38:38;;;;;;;;;;;22.40;99.90;;;;;;4214110;28;19924;-60
2022/08/23 07:40:40;;;;;;;;;;;22.80;99.90;;;;;;4215207;28;19970;-60
2022/08/23 07:42:42;;;;;;;;;;;23.10;99.90;;;;;;4215101;28;19932;-60
2022/08/23 07:44:44;;;;;;;;;;;23.10;99.90;;;;;;4197430;28;19924;-60
2022/08/23 07:46:47;;;;;;;;;;;23.10;99.90;;;;;;4214835;28;19967;-61
2022/08/23 07:48:50;;;;;;;;;;;23.40;99.90;;;;;;4215721;28;19977;-61
2022/08/23 07:50:57;;;;;;;;;;;23.50;99.90;;;;;;4215214;28;20339;-60
2022/08/23 07:53:01;;;;;;;;;;;23.40;99.90;;;;;;4215284;28;19928;-60
2022/08/23 07:55:04;;;;;;;;;;;23.70;99.90;;;;;;4215373;28;19954;-60
2022/08/23 07:57:06;;;;;;;;;;;23.80;99.90;;;;;;4215738;28;19965;-60
2022/08/23 07:59:09;;;;;;;;;;;23.80;99.90;;;;;;4214848;28;20038;-61
2022/08/23 08:01:15;;;;;;;;;;;23.90;99.90;;;;;;4215368;28;19978;-61
2022/08/23 08:03:18;;;;;;;;;;;24.20;99.90;;;;;;4215099;28;19924;-61
2022/08/23 08:05:20;;;;;;;;;;;24.40;99.90;;;;;;4215435;28;19928;-60
2022/08/23 08:07:23;;;;;;;;;;;24.50;99.90;;;;;;4215011;28;19935;-60
2022/08/23 08:09:25;;;;;;;;;;;24.60;99.90;;;;;;4197225;28;20480;-60
2022/08/23 08:11:29;;;;;;;;;;;25.00;99.90;;;;;;4197149;28;20478;-60
2022/08/23 08:13:39;;;;;;;;;;;24.50;99.90;;;;;;4215085;28;19928;-62
2022/08/23 08:15:41;;;;;;;;;;;24.80;99.90;;;;;;4214876;28;19973;-61
2022/08/23 08:17:47;;;;;;;;;;;25.00;99.90;;;;;;4215000;28;19924;-60
2022/08/23 08:19:49;;;;;;;;;;;25.30;99.90;;;;;;4214521;28;20421;-61
2022/08/23 08:21:51;;;;;;;;;;;25.10;99.90;;;;;;4214890;28;20384;-61
2022/08/23 08:23:54;;;;;;;;;;;25.30;99.90;;;;;;4214764;28;20277;-60
2022/08/23 08:26:04;;;;;;;;;;;25.40;99.90;;;;;;4214667;28;19924;-60
2022/08/23 08:28:06;;;;;;;;;;;25.40;99.90;;;;;;4214622;28;19924;-60
2022/08/23 08:30:12;;;;;;;;;;;25.00;99.90;;;;;;4215030;28;19936;-60
2022/08/23 08:32:14;;;;;;;;;;;25.20;99.90;;;;;;4214512;28;19927;-61
2022/08/23 08:34:17;;;;;;;;;;;25.40;99.90;;;;;;4214940;28;20211;-60
2022/08/23 08:36:34;;;;;;;;;;;25.50;99.90;;;;;;4214039;28;19967;-60
2022/08/23 08:38:39;;;;;;;;;;;25.50;99.90;;;;;;4211756;28;19942;-61
2022/08/23 08:41:09;;;;;;;;;;;25.50;99.90;;;;;;4213097;28;19928;-60
2022/08/23 08:43:23;;;;;;;;;;;25.80;99.90;;;;;;4214537;28;20137;-61
2022/08/23 08:45:28;;;;;;;;;;;26.00;99.90;;;;;;4214702;28;19928;-61
2022/08/23 08:47:33;;;;;;;;;;;26.10;99.90;;;;;;4213851;28;19981;-60
2022/08/23 08:49:55;;;;;;;;;;;26.50;99.90;;;;;;4197313;28;20281;-61
2022/08/23 08:52:17;;;;;;;;;;;26.70;99.90;;;;;;4211478;28;19928;-60
2022/08/23 08:54:23;;;;;;;;;;;26.70;99.90;;;;;;4146118;28;19929;-60
2022/08/23 08:56:27;;;;;;;;;;;26.90;99.80;;;;;;4162434;28;20419;-61
2022/08/23 08:58:40;;;;;;;;;;;26.80;98.20;;;;;;4151971;28;19930;-61
2022/08/23 09:00:42;;;;;;;;;;;26.80;99.20;;;;;;4154159;28;19976;-60
2022/08/23 09:02:45;;;;;;;;;;;27.00;99.90;;;;;;4151021;28;20012;-60
2022/08/23 09:04:47;;;;;;;;;;;27.10;99.30;;;;;;4160084;28;20024;-61
2022/08/23 09:07:12;;;;;;;;;;;26.90;98.60;;;;;;4162283;28;19944;-60
2022/08/23 09:09:19;;;;;;;;;;;27.00;98.00;;;;;;4153205;28;19925;-62
2022/08/23 09:11:27;;;;;;;;;;;27.10;99.80;;;;;;4145766;28;19960;-61
2022/08/23 09:13:29;;;;;;;;;;;26.70;99.60;;;;;;4157340;28;20397;-60
2022/08/23 09:15:34;;;;;;;;;;;26.90;98.20;;;;;;4152147;28;19929;-60
2022/08/23 09:17:59;;;;;;;;;;;27.00;98.80;;;;;;4162109;28;19975;-60
2022/08/23 09:20:04;;;;;;;;;;;26.90;97.50;;;;;;4159330;28;20419;-61
2022/08/23 09:22:13;;;;;;;;;;;27.20;96.30;;;;;;4154679;28;19929;-60
2022/08/23 09:24:15;;;;;;;;;;;27.40;97.70;;;;;;4158093;28;19925;-60
2022/08/23 09:26:21;;;;;;;;;;;27.70;97.10;;;;;;4161169;28;19933;-61
2022/08/23 09:28:23;;;;;;;;;;;27.80;98.10;;;;;;4167745;28;19935;-60
2022/08/23 09:30:43;;;;;;;;;;;28.00;97.60;;;;;;4158046;28;19960;-60
2022/08/23 09:32:48;;;;;;;;;;;27.90;97.80;;;;;;4213211;28;20382;-60
2022/08/23 09:34:51;;;;;;;;;;;27.90;96.80;;;;;;4195760;28;19970;-60
2022/08/23 09:37:04;;;;;;;;;;;28.10;95.20;;;;;;4213413;28;19932;-60
2022/08/23 09:39:07;;;;;;;;;;;28.40;97.10;;;;;;4212287;28;20013;-61
2022/08/23 09:41:17;;;;;;;;;;;28.10;95.70;;;;;;4208299;28;19974;-60
2022/08/23 09:43:26;;;;;;;;;;;28.60;98.40;;;;;;4205971;28;19975;-60
2022/08/23 09:45:29;;;;;;;;;;;28.90;95.00;;;;;;4204523;28;19958;-61
2022/08/23 09:47:40;;;;;;;;;;;28.70;95.60;;;;;;4213152;28;19971;-61
2022/08/23 09:49:50;;;;;;;;;;;29.10;94.80;;;;;;4186107;28;19978;-60
2022/08/23 09:51:53;;;;;;;;;;;29.40;94.50;;;;;;4210007;28;19928;-60
2022/08/23 09:54:03;;;;;;;;;;;29.00;93.10;;;;;;4211081;28;20419;-61
2022/08/23 09:56:10;;;;;;;;;;;29.00;94.00;;;;;;4207039;28;19946;-60
2022/08/23 09:58:28;;;;;;;;;;;28.90;93.90;;;;;;4211690;28;20003;-60
2022/08/23 10:00:32;;;;;;;;;;;29.30;93.30;;;;;;4212560;28;20451;-60
2022/08/23 10:02:34;;;;;;;;;;;29.50;92.80;;;;;;4209099;28;19928;-61
2022/08/23 10:04:44;;;;;;;;;;;29.60;92.90;;;;;;4217265;28;19928;-61
2022/08/23 10:06:46;;;;;;;;;;;30.00;90.60;;;;;;4213114;28;20304;-61
2022/08/23 10:08:53;;;;;;;;;;;30.00;90.90;;;;;;4212541;28;20126;-60
2022/08/23 10:10:58;;;;;;;;;;;29.90;90.10;;;;;;4208545;28;19952;-60
2022/08/23 10:13:00;;;;;;;;;;;30.30;90.40;;;;;;4194016;28;19925;-61
2022/08/23 10:15:03;;;;;;;;;;;30.20;92.50;;;;;;4211691;28;20226;-61
2022/08/23 10:17:13;;;;;;;;;;;30.40;91.90;;;;;;4207313;28;19928;-61
2022/08/23 10:19:15;;;;;;;;;;;30.60;90.10;;;;;;4197236;28;20269;-61
2022/08/23 10:21:37;;;;;;;;;;;31.00;91.50;;;;;;4210378;28;19928;-61
2022/08/23 10:23:47;;;;;;;;;;;30.80;88.10;;;;;;4141939;28;19960;-61
2022/08/23 10:25:54;;;;;;;;;;;30.90;89.50;;;;;;4135195;28;20005;-61
2022/08/23 10:30:42;;;;;;;;;;;30.80;89.20;;;;;;4142845;28;19925;-61
2022/08/23 10:32:50;;;;;;;;;;;31.20;84.80;;;;;;4144429;28;19925;-62
2022/08/23 10:34:59;;;;;;;;;;;30.80;80.80;;;;;;4144540;28;19925;-61
2022/08/23 10:37:04;;;;;;;;;;;30.60;77.20;;;;;;4139944;28;20026;-61
2022/08/23 10:39:13;;;;;;;;;;;31.00;81.30;;;;;;4133275;28;20181;-61
2022/08/23 10:41:34;;;;;;;;;;;31.10;84.80;;;;;;4154587;28;20439;-61
2022/08/23 10:43:36;;;;;;;;;;;31.10;77.90;;;;;;4144077;28;20004;-61
2022/08/23 10:45:40;;;;;;;;;;;31.10;76.20;;;;;;4138285;28;19929;-61
2022/08/23 10:47:51;;;;;;;;;;;31.00;78.10;;;;;;4142897;28;19929;-61
2022/08/23 10:49:57;;;;;;;;;;;30.90;79.30;;;;;;4143428;28;20134;-60
2022/08/23 10:52:02;;;;;;;;;;;30.60;76.20;;;;;;4144550;28;19944;-60
2022/08/23 10:54:05;;;;;;;;;;;30.40;77.50;;;;;;4136422;28;19929;-61
2022/08/23 10:56:07;;;;;;;;;;;30.60;80.60;;;;;;4137764;28;19938;-61
2022/08/23 10:58:12;;;;;;;;;;;30.90;76.10;;;;;;4144909;28;19929;-60
2022/08/23 11:00:20;;;;;;;;;;;31.10;75.60;;;;;;4157930;28;19961;-60
2022/08/23 11:02:37;;;;;;;;;;;30.90;72.20;;;;;;4216147;28;19930;-61
2022/08/23 11:04:45;;;;;;;;;;;31.00;72.80;;;;;;4204924;28;19928;-60
2022/08/23 11:06:56;;;;;;;;;;;31.00;72.70;;;;;;4212102;28;19928;-61
2022/08/23 11:09:09;;;;;;;;;;;30.70;70.70;;;;;;4212259;28;19958;-60
2022/08/23 11:11:31;;;;;;;;;;;30.90;71.90;;;;;;4212391;28;19935;-60
2022/08/23 11:13:33;;;;;;;;;;;31.10;75.00;;;;;;4211047;28;19928;-61
2022/08/23 11:15:44;;;;;;;;;;;31.20;72.10;;;;;;4212123;28;20284;-60
2022/08/23 11:17:48;;;;;;;;;;;31.20;72.10;;;;;;4211920;28;19962;-60
2022/08/23 11:19:55;;;;;;;;;;;31.30;73.40;;;;;;4217193;28;19923;-61
2022/08/23 11:22:12;;;;;;;;;;;31.40;71.60;;;;;;4207965;28;19928;-61
2022/08/23 11:24:15;;;;;;;;;;;31.50;74.20;;;;;;4211968;28;19927;-60
2022/08/23 11:26:30;;;;;;;;;;;31.10;71.20;;;;;;4212204;28;20331;-61
2022/08/23 11:28:40;;;;;;;;;;;31.20;71.00;;;;;;4211873;28;19935;-61
2022/08/23 11:30:44;;;;;;;;;;;31.60;75.00;;;;;;4193882;28;20335;-62
2022/08/23 11:32:47;;;;;;;;;;;31.50;73.00;;;;;;4212096;28;19979;-61
2022/08/23 11:34:49;;;;;;;;;;;31.70;78.60;;;;;;4211679;28;20031;-60
2022/08/23 11:37:09;;;;;;;;;;;31.40;73.00;;;;;;4212074;28;20308;-61
2022/08/23 11:39:11;;;;;;;;;;;31.20;72.10;;;;;;4194002;28;19928;-60
2022/08/23 11:41:13;;;;;;;;;;;30.90;71.30;;;;;;4211807;28;20030;-60
2022/08/23 11:43:35;;;;;;;;;;;31.00;72.70;;;;;;4211592;28;19928;-60
2022/08/23 11:45:41;;;;;;;;;;;31.00;73.10;;;;;;4212422;28;20291;-61
2022/08/23 11:47:43;;;;;;;;;;;31.30;73.60;;;;;;4211533;28;20327;-61
2022/08/23 11:50:12;;;;;;;;;;;31.50;71.00;;;;;;4211719;28;20330;-61
2022/08/23 11:52:19;;;;;;;;;;;31.60;75.70;;;;;;4188532;28;19932;-61
2022/08/23 11:54:34;;;;;;;;;;;31.60;74.70;;;;;;4212128;28;19931;-60
2022/08/23 11:56:52;;;;;;;;;;;31.90;74.70;;;;;;4211857;28;20437;-61
2022/08/23 11:58:57;;;;;;;;;;;31.90;74.20;;;;;;4208089;28;20392;-60
2022/08/23 12:00:58;;;;;;;;;;;31.80;76.30;;;;;;4211623;28;20006;-61
2022/08/23 12:03:23;;;;;;;;;;;31.50;72.60;;;;;;4212555;28;19931;-61
2022/08/23 12:05:37;;;;;;;;;;;31.40;73.20;;;;;;4211910;28;19947;-60
2022/08/23 12:07:42;;;;;;;;;;;31.40;74.00;;;;;;4193963;28;20419;-60
2022/08/23 12:09:49;;;;;;;;;;;31.10;74.10;;;;;;4211779;28;19932;-61
2022/08/23 12:11:54;;;;;;;;;;;31.10;73.00;;;;;;4211721;28;19928;-61
2022/08/23 12:13:58;;;;;;;;;;;31.20;75.90;;;;;;4212629;28;19982;-60
2022/08/23 12:16:03;;;;;;;;;;;31.60;73.50;;;;;;4223275;28;20426;-61
2022/08/23 12:18:09;;;;;;;;;;;32.00;74.50;;;;;;4212658;28;19935;-60